Pineville, MO

4:40 AM CST on December 06, 2016 (GMT -0600)
Brush Creek | | Change Station

Elev 1056 ft 36.51 °N, 94.34 °W | Updated 32 seconds ago

Overcast
Overcast
42.6 °F
Feels Like 43 °F
N
0.4
Wind Variable Wind from NNW
Gusts 2.5 mph

Today
High -- | Low -- °F
--% Chance of Precip.
Yesterday
High -- | Low -- °F
Precip. -- in
Pressure 29.80 in
Visibility 10.0 miles
Clouds Overcast 1300 ft
Windchill 43 °F
Dew Point 39 °F
Humidity 88%
Rainfall 0.00 in
Snow Depth Not available.
7:15 AM 5:01 PM
Waxing Crescent, 40% visible
METAR KVBT 061035Z AUTO 33008KT 10SM OVC013 06/02 A2980 RMK AO1
Pressure 29.80 in
Visibility 10.0 miles
Clouds Overcast 1300 ft
Windchill 43 °F
Dew Point 39 °F
Humidity 88%
Rainfall 0.00 in
Snow Depth Not available.
7:15 AM 5:01 PM
Waxing Crescent, 40% visible
METAR KVBT 061035Z AUTO 33008KT 10SM OVC013 06/02 A2980 RMK AO1

10-Day Weather Forecast

Almanac

Astronomy

Dec. 06, 2016 Rise Set
Actual Time
Civil Twilight
Nautical Twilight
Astronomical Twilight
Moon
Length of Visible Light
Length of Day
Tomorrow will be .
, % of the Moon is Illuminated

Today's Extremes

State Highs State Lows

Community

WunderPhotos

Upload Photos

1,955,935 photos uploaded!

WunderBlog® & News

Nearby

Air Quality

  Air Quality AQ Index Pollutant
Not available.

Snow Depth

Station Depth Elevation

Earthquake Activity

City Distance Mag. Time & Date
Minimum magnitude displayed is 2.5.

Coastal Water Temperatures

Place Temperature

Stations

Nearby Weather Stations

Station Location Temp. Windchill Dew Point Humidity Wind Precip. Elev Updated Type
                   

Watches & Warnings

There are currently no watches in effect.